sensor_id;sensor_type;location;lat;lon;timestamp;P1;durP1;ratioP1;P2;durP2;ratioP2
16524;SDS011;8375;33.594;-117.718;2023-07-28T00:00:22;10.02;;;5.00;;
16524;SDS011;8375;33.594;-117.718;2023-07-28T00:02:52;7.28;;;4.97;;
16524;SDS011;8375;33.594;-117.718;2023-07-28T00:05:21;8.00;;;4.75;;
16524;SDS011;8375;33.594;-117.718;2023-07-28T00:07:50;9.07;;;5.40;;
16524;SDS011;8375;33.594;-117.718;2023-07-28T00:10:18;6.75;;;4.95;;
16524;SDS011;8375;33.594;-117.718;2023-07-28T00:12:47;8.18;;;5.20;;
16524;SDS011;8375;33.594;-117.718;2023-07-28T00:15:16;6.78;;;5.22;;
16524;SDS011;8375;33.594;-117.718;2023-07-28T00:17:44;10.10;;;5.18;;
16524;SDS011;8375;33.594;-117.718;2023-07-28T00:20:15;8.32;;;5.57;;
16524;SDS011;8375;33.594;-117.718;2023-07-28T00:22:43;7.18;;;5.00;;
16524;SDS011;8375;33.594;-117.718;2023-07-28T00:25:12;8.38;;;5.07;;
16524;SDS011;8375;33.594;-117.718;2023-07-28T00:27:41;11.20;;;5.85;;
16524;SDS011;8375;33.594;-117.718;2023-07-28T00:30:10;11.20;;;5.22;;
16524;SDS011;8375;33.594;-117.718;2023-07-28T00:32:39;7.07;;;5.25;;
16524;SDS011;8375;33.594;-117.718;2023-07-28T00:35:08;8.55;;;6.05;;
16524;SDS011;8375;33.594;-117.718;2023-07-28T00:37:38;11.48;;;5.65;;
16524;SDS011;8375;33.594;-117.718;2023-07-28T00:40:07;11.48;;;6.55;;
16524;SDS011;8375;33.594;-117.718;2023-07-28T00:42:37;10.40;;;6.57;;
16524;SDS011;8375;33.594;-117.718;2023-07-28T00:45:06;11.85;;;6.35;;
16524;SDS011;8375;33.594;-117.718;2023-07-28T00:47:35;10.35;;;6.30;;
16524;SDS011;8375;33.594;-117.718;2023-07-28T00:50:04;10.57;;;6.63;;
16524;SDS011;8375;33.594;-117.718;2023-07-28T00:52:34;10.48;;;6.68;;
16524;SDS011;8375;33.594;-117.718;2023-07-28T00:55:05;10.57;;;6.47;;
16524;SDS011;8375;33.594;-117.718;2023-07-28T00:57:34;13.52;;;7.63;;
16524;SDS011;8375;33.594;-117.718;2023-07-28T01:00:05;13.90;;;6.93;;
16524;SDS011;8375;33.594;-117.718;2023-07-28T01:02:34;11.07;;;6.97;;
16524;SDS011;8375;33.594;-117.718;2023-07-28T01:05:03;16.33;;;7.45;;
16524;SDS011;8375;33.594;-117.718;2023-07-28T01:07:35;14.15;;;7.15;;
16524;SDS011;8375;33.594;-117.718;2023-07-28T01:10:13;11.52;;;7.22;;
16524;SDS011;8375;33.594;-117.718;2023-07-28T01:12:45;17.73;;;7.63;;
16524;SDS011;8375;33.594;-117.718;2023-07-28T01:15:14;12.95;;;7.45;;
16524;SDS011;8375;33.594;-117.718;2023-07-28T01:17:42;14.35;;;7.25;;
16524;SDS011;8375;33.594;-117.718;2023-07-28T01:20:11;16.48;;;7.22;;
16524;SDS011;8375;33.594;-117.718;2023-07-28T01:22:46;13.05;;;7.72;;
16524;SDS011;8375;33.594;-117.718;2023-07-28T01:25:27;15.57;;;7.68;;
16524;SDS011;8375;33.594;-117.718;2023-07-28T01:28:05;13.38;;;8.05;;
16524;SDS011;8375;33.594;-117.718;2023-07-28T01:30:35;13.73;;;7.68;;
16524;SDS011;8375;33.594;-117.718;2023-07-28T01:33:05;13.30;;;8.05;;
16524;SDS011;8375;33.594;-117.718;2023-07-28T01:35:35;14.82;;;7.80;;
16524;SDS011;8375;33.594;-117.718;2023-07-28T01:38:05;15.73;;;7.82;;
16524;SDS011;8375;33.594;-117.718;2023-07-28T01:40:34;14.80;;;7.70;;
16524;SDS011;8375;33.594;-117.718;2023-07-28T01:43:03;10.70;;;7.15;;
16524;SDS011;8375;33.594;-117.718;2023-07-28T01:45:33;17.08;;;8.23;;
16524;SDS011;8375;33.594;-117.718;2023-07-28T01:48:02;14.85;;;7.63;;
16524;SDS011;8375;33.594;-117.718;2023-07-28T01:50:31;12.70;;;7.07;;
16524;SDS011;8375;33.594;-117.718;2023-07-28T01:53:00;12.68;;;6.45;;
16524;SDS011;8375;33.594;-117.718;2023-07-28T01:55:28;14.30;;;6.63;;
16524;SDS011;8375;33.594;-117.718;2023-07-28T01:57:57;14.07;;;7.00;;
16524;SDS011;8375;33.594;-117.718;2023-07-28T02:00:29;13.85;;;6.75;;
16524;SDS011;8375;33.594;-117.718;2023-07-28T02:02:58;16.83;;;7.20;;
16524;SDS011;8375;33.594;-117.718;2023-07-28T02:05:28;13.77;;;6.43;;
16524;SDS011;8375;33.594;-117.718;2023-07-28T02:07:57;13.95;;;6.57;;
16524;SDS011;8375;33.594;-117.718;2023-07-28T02:10:26;18.00;;;7.18;;
16524;SDS011;8375;33.594;-117.718;2023-07-28T02:12:55;14.38;;;6.25;;
16524;SDS011;8375;33.594;-117.718;2023-07-28T02:15:24;15.02;;;6.40;;
16524;SDS011;8375;33.594;-117.718;2023-07-28T02:17:54;14.05;;;6.22;;
16524;SDS011;8375;33.594;-117.718;2023-07-28T02:20:23;14.75;;;6.45;;
16524;SDS011;8375;33.594;-117.718;2023-07-28T02:22:52;15.70;;;6.40;;
16524;SDS011;8375;33.594;-117.718;2023-07-28T02:25:20;13.43;;;5.60;;
16524;SDS011;8375;33.594;-117.718;2023-07-28T02:27:49;13.25;;;6.50;;
16524;SDS011;8375;33.594;-117.718;2023-07-28T02:30:18;14.23;;;5.72;;
16524;SDS011;8375;33.594;-117.718;2023-07-28T02:32:46;12.38;;;5.30;;
16524;SDS011;8375;33.594;-117.718;2023-07-28T02:35:17;10.98;;;5.93;;
16524;SDS011;8375;33.594;-117.718;2023-07-28T02:37:45;16.33;;;5.63;;
16524;SDS011;8375;33.594;-117.718;2023-07-28T02:40:14;13.90;;;5.10;;
16524;SDS011;8375;33.594;-117.718;2023-07-28T02:42:43;13.75;;;5.35;;
16524;SDS011;8375;33.594;-117.718;2023-07-28T02:45:11;12.73;;;5.80;;
16524;SDS011;8375;33.594;-117.718;2023-07-28T02:47:40;15.73;;;5.68;;
16524;SDS011;8375;33.594;-117.718;2023-07-28T02:50:09;12.90;;;4.88;;
16524;SDS011;8375;33.594;-117.718;2023-07-28T02:52:39;11.63;;;5.28;;
16524;SDS011;8375;33.594;-117.718;2023-07-28T02:55:08;16.60;;;6.35;;
16524;SDS011;8375;33.594;-117.718;2023-07-28T02:57:37;13.27;;;5.45;;
16524;SDS011;8375;33.594;-117.718;2023-07-28T03:00:06;10.38;;;6.53;;
16524;SDS011;8375;33.594;-117.718;2023-07-28T03:02:36;14.57;;;6.82;;
16524;SDS011;8375;33.594;-117.718;2023-07-28T03:05:05;15.23;;;6.50;;
16524;SDS011;8375;33.594;-117.718;2023-07-28T03:07:34;15.48;;;7.15;;
16524;SDS011;8375;33.594;-117.718;2023-07-28T03:10:05;18.02;;;7.80;;
16524;SDS011;8375;33.594;-117.718;2023-07-28T03:12:34;21.10;;;8.18;;
16524;SDS011;8375;33.594;-117.718;2023-07-28T03:15:03;16.95;;;8.45;;
16524;SDS011;8375;33.594;-117.718;2023-07-28T03:17:32;24.17;;;9.27;;
16524;SDS011;8375;33.594;-117.718;2023-07-28T03:20:01;18.13;;;8.93;;
16524;SDS011;8375;33.594;-117.718;2023-07-28T03:22:30;17.40;;;7.97;;
16524;SDS011;8375;33.594;-117.718;2023-07-28T03:24:58;19.92;;;8.80;;
16524;SDS011;8375;33.594;-117.718;2023-07-28T03:27:30;18.58;;;9.13;;
16524;SDS011;8375;33.594;-117.718;2023-07-28T03:29:59;18.98;;;8.73;;
16524;SDS011;8375;33.594;-117.718;2023-07-28T03:32:28;21.17;;;9.23;;
16524;SDS011;8375;33.594;-117.718;2023-07-28T03:34:57;16.65;;;8.93;;
16524;SDS011;8375;33.594;-117.718;2023-07-28T03:37:26;19.05;;;9.38;;
16524;SDS011;8375;33.594;-117.718;2023-07-28T03:39:54;18.42;;;9.20;;
16524;SDS011;8375;33.594;-117.718;2023-07-28T03:42:23;16.08;;;9.52;;
16524;SDS011;8375;33.594;-117.718;2023-07-28T03:44:54;22.13;;;9.48;;
16524;SDS011;8375;33.594;-117.718;2023-07-28T03:47:22;14.80;;;8.45;;
16524;SDS011;8375;33.594;-117.718;2023-07-28T03:49:51;19.83;;;9.15;;
16524;SDS011;8375;33.594;-117.718;2023-07-28T03:52:20;19.25;;;9.57;;
16524;SDS011;8375;33.594;-117.718;2023-07-28T03:54:48;14.70;;;8.35;;
16524;SDS011;8375;33.594;-117.718;2023-07-28T03:57:17;21.53;;;9.63;;
16524;SDS011;8375;33.594;-117.718;2023-07-28T03:59:46;19.85;;;9.30;;
16524;SDS011;8375;33.594;-117.718;2023-07-28T04:02:16;19.43;;;9.60;;
16524;SDS011;8375;33.594;-117.718;2023-07-28T04:04:45;21.60;;;9.67;;
16524;SDS011;8375;33.594;-117.718;2023-07-28T04:07:14;15.80;;;8.73;;
16524;SDS011;8375;33.594;-117.718;2023-07-28T04:09:42;18.63;;;9.18;;
16524;SDS011;8375;33.594;-117.718;2023-07-28T04:12:11;17.17;;;8.53;;
16524;SDS011;8375;33.594;-117.718;2023-07-28T04:14:39;17.27;;;9.02;;
16524;SDS011;8375;33.594;-117.718;2023-07-28T04:17:08;19.42;;;9.35;;
16524;SDS011;8375;33.594;-117.718;2023-07-28T04:19:39;22.98;;;9.15;;
16524;SDS011;8375;33.594;-117.718;2023-07-28T04:22:08;20.27;;;9.70;;
16524;SDS011;8375;33.594;-117.718;2023-07-28T04:24:37;21.13;;;10.73;;
16524;SDS011;8375;33.594;-117.718;2023-07-28T04:27:06;21.77;;;10.53;;
16524;SDS011;8375;33.594;-117.718;2023-07-28T04:29:34;21.97;;;11.13;;
16524;SDS011;8375;33.594;-117.718;2023-07-28T04:32:03;18.40;;;10.40;;
16524;SDS011;8375;33.594;-117.718;2023-07-28T04:34:33;22.17;;;10.13;;
16524;SDS011;8375;33.594;-117.718;2023-07-28T04:37:03;25.87;;;10.13;;
16524;SDS011;8375;33.594;-117.718;2023-07-28T04:39:32;19.87;;;9.10;;
16524;SDS011;8375;33.594;-117.718;2023-07-28T04:42:01;16.77;;;9.07;;
16524;SDS011;8375;33.594;-117.718;2023-07-28T04:44:32;18.75;;;9.75;;
16524;SDS011;8375;33.594;-117.718;2023-07-28T04:47:02;19.87;;;10.23;;
16524;SDS011;8375;33.594;-117.718;2023-07-28T04:49:30;21.57;;;10.50;;
16524;SDS011;8375;33.594;-117.718;2023-07-28T04:51:59;21.07;;;10.07;;
16524;SDS011;8375;33.594;-117.718;2023-07-28T04:54:31;21.90;;;11.33;;
16524;SDS011;8375;33.594;-117.718;2023-07-28T04:57:00;19.47;;;10.40;;
16524;SDS011;8375;33.594;-117.718;2023-07-28T04:59:29;21.60;;;10.73;;
16524;SDS011;8375;33.594;-117.718;2023-07-28T05:01:58;22.67;;;10.57;;
16524;SDS011;8375;33.594;-117.718;2023-07-28T05:04:26;21.90;;;11.30;;
16524;SDS011;8375;33.594;-117.718;2023-07-28T05:06:55;17.87;;;10.23;;
16524;SDS011;8375;33.594;-117.718;2023-07-28T05:09:24;18.50;;;10.33;;
16524;SDS011;8375;33.594;-117.718;2023-07-28T05:11:55;17.87;;;10.13;;
16524;SDS011;8375;33.594;-117.718;2023-07-28T05:14:24;24.60;;;11.03;;
16524;SDS011;8375;33.594;-117.718;2023-07-28T05:16:53;20.63;;;10.93;;
16524;SDS011;8375;33.594;-117.718;2023-07-28T05:19:22;23.07;;;11.70;;
16524;SDS011;8375;33.594;-117.718;2023-07-28T05:21:50;27.03;;;11.60;;
16524;SDS011;8375;33.594;-117.718;2023-07-28T05:24:19;22.08;;;11.43;;
16524;SDS011;8375;33.594;-117.718;2023-07-28T05:26:48;24.23;;;10.98;;
16524;SDS011;8375;33.594;-117.718;2023-07-28T05:29:18;24.47;;;11.53;;
16524;SDS011;8375;33.594;-117.718;2023-07-28T05:31:47;18.08;;;11.40;;
16524;SDS011;8375;33.594;-117.718;2023-07-28T05:34:16;21.23;;;11.88;;
16524;SDS011;8375;33.594;-117.718;2023-07-28T05:36:45;26.27;;;12.45;;
16524;SDS011;8375;33.594;-117.718;2023-07-28T05:39:14;26.07;;;11.73;;
16524;SDS011;8375;33.594;-117.718;2023-07-28T05:41:43;26.40;;;11.80;;
16524;SDS011;8375;33.594;-117.718;2023-07-28T05:44:12;24.30;;;12.43;;
16524;SDS011;8375;33.594;-117.718;2023-07-28T05:46:43;23.30;;;12.23;;
16524;SDS011;8375;33.594;-117.718;2023-07-28T05:49:14;25.73;;;12.82;;
16524;SDS011;8375;33.594;-117.718;2023-07-28T05:51:43;20.88;;;11.45;;
16524;SDS011;8375;33.594;-117.718;2023-07-28T05:54:11;24.92;;;12.52;;
16524;SDS011;8375;33.594;-117.718;2023-07-28T05:56:40;24.50;;;12.60;;
16524;SDS011;8375;33.594;-117.718;2023-07-28T05:59:10;23.38;;;11.32;;
16524;SDS011;8375;33.594;-117.718;2023-07-28T06:01:38;22.73;;;12.48;;
16524;SDS011;8375;33.594;-117.718;2023-07-28T06:04:09;19.60;;;12.97;;
16524;SDS011;8375;33.594;-117.718;2023-07-28T06:06:38;28.85;;;12.52;;
16524;SDS011;8375;33.594;-117.718;2023-07-28T06:09:06;25.03;;;13.43;;
16524;SDS011;8375;33.594;-117.718;2023-07-28T06:11:35;27.53;;;13.73;;
16524;SDS011;8375;33.594;-117.718;2023-07-28T06:14:04;25.47;;;12.83;;
16524;SDS011;8375;33.594;-117.718;2023-07-28T06:16:33;25.77;;;11.90;;
16524;SDS011;8375;33.594;-117.718;2023-07-28T06:19:02;25.00;;;13.67;;
16524;SDS011;8375;33.594;-117.718;2023-07-28T06:21:33;30.00;;;13.93;;
16524;SDS011;8375;33.594;-117.718;2023-07-28T06:24:03;25.23;;;13.07;;
16524;SDS011;8375;33.594;-117.718;2023-07-28T06:26:32;29.30;;;14.57;;
16524;SDS011;8375;33.594;-117.718;2023-07-28T06:29:01;26.90;;;13.87;;
16524;SDS011;8375;33.594;-117.718;2023-07-28T06:31:31;32.93;;;15.10;;
16524;SDS011;8375;33.594;-117.718;2023-07-28T06:34:00;28.27;;;15.30;;
16524;SDS011;8375;33.594;-117.718;2023-07-28T06:36:28;32.63;;;15.10;;
16524;SDS011;8375;33.594;-117.718;2023-07-28T06:38:59;28.80;;;14.03;;
16524;SDS011;8375;33.594;-117.718;2023-07-28T06:41:28;32.77;;;15.43;;
16524;SDS011;8375;33.594;-117.718;2023-07-28T06:43:57;32.30;;;14.13;;
16524;SDS011;8375;33.594;-117.718;2023-07-28T06:46:26;31.33;;;14.70;;
16524;SDS011;8375;33.594;-117.718;2023-07-28T06:48:54;31.17;;;13.77;;
16524;SDS011;8375;33.594;-117.718;2023-07-28T06:51:23;27.63;;;13.47;;
16524;SDS011;8375;33.594;-117.718;2023-07-28T06:53:52;30.93;;;15.50;;
16524;SDS011;8375;33.594;-117.718;2023-07-28T06:56:23;33.00;;;14.70;;
16524;SDS011;8375;33.594;-117.718;2023-07-28T06:58:52;24.00;;;14.33;;
16524;SDS011;8375;33.594;-117.718;2023-07-28T07:01:20;27.57;;;14.93;;
16524;SDS011;8375;33.594;-117.718;2023-07-28T07:03:49;26.23;;;14.50;;
16524;SDS011;8375;33.594;-117.718;2023-07-28T07:06:18;29.73;;;13.93;;
16524;SDS011;8375;33.594;-117.718;2023-07-28T07:08:47;31.40;;;14.33;;
16524;SDS011;8375;33.594;-117.718;2023-07-28T07:11:16;29.47;;;13.70;;
16524;SDS011;8375;33.594;-117.718;2023-07-28T07:13:47;29.67;;;14.10;;
16524;SDS011;8375;33.594;-117.718;2023-07-28T07:16:17;28.43;;;14.73;;
16524;SDS011;8375;33.594;-117.718;2023-07-28T07:18:47;25.43;;;13.60;;
16524;SDS011;8375;33.594;-117.718;2023-07-28T07:21:19;27.23;;;14.10;;
16524;SDS011;8375;33.594;-117.718;2023-07-28T07:23:48;31.67;;;14.60;;
16524;SDS011;8375;33.594;-117.718;2023-07-28T07:26:17;29.53;;;13.90;;
16524;SDS011;8375;33.594;-117.718;2023-07-28T07:28:48;23.77;;;13.37;;
16524;SDS011;8375;33.594;-117.718;2023-07-28T07:31:17;29.40;;;13.80;;
16524;SDS011;8375;33.594;-117.718;2023-07-28T07:33:47;24.13;;;12.83;;
16524;SDS011;8375;33.594;-117.718;2023-07-28T07:36:18;29.77;;;14.90;;
16524;SDS011;8375;33.594;-117.718;2023-07-28T07:38:48;29.07;;;14.57;;
16524;SDS011;8375;33.594;-117.718;2023-07-28T07:41:17;26.50;;;14.90;;
16524;SDS011;8375;33.594;-117.718;2023-07-28T07:43:52;28.37;;;14.13;;
16524;SDS011;8375;33.594;-117.718;2023-07-28T07:46:23;26.10;;;13.53;;
16524;SDS011;8375;33.594;-117.718;2023-07-28T07:48:53;28.77;;;14.77;;
16524;SDS011;8375;33.594;-117.718;2023-07-28T07:51:24;24.63;;;13.83;;
16524;SDS011;8375;33.594;-117.718;2023-07-28T07:53:54;23.77;;;13.07;;
16524;SDS011;8375;33.594;-117.718;2023-07-28T07:56:24;25.67;;;13.93;;
16524;SDS011;8375;33.594;-117.718;2023-07-28T07:58:56;21.50;;;13.23;;
16524;SDS011;8375;33.594;-117.718;2023-07-28T08:01:26;23.17;;;12.80;;
16524;SDS011;8375;33.594;-117.718;2023-07-28T08:03:56;21.50;;;12.73;;
16524;SDS011;8375;33.594;-117.718;2023-07-28T08:06:28;23.97;;;12.30;;
16524;SDS011;8375;33.594;-117.718;2023-07-28T08:08:59;27.80;;;13.70;;
16524;SDS011;8375;33.594;-117.718;2023-07-28T08:11:38;25.27;;;13.50;;
16524;SDS011;8375;33.594;-117.718;2023-07-28T08:14:10;28.30;;;12.87;;
16524;SDS011;8375;33.594;-117.718;2023-07-28T08:16:39;26.73;;;13.87;;
16524;SDS011;8375;33.594;-117.718;2023-07-28T08:19:08;21.83;;;12.03;;
16524;SDS011;8375;33.594;-117.718;2023-07-28T08:21:37;26.77;;;13.13;;
16524;SDS011;8375;33.594;-117.718;2023-07-28T08:24:07;22.23;;;12.17;;
16524;SDS011;8375;33.594;-117.718;2023-07-28T08:26:37;27.73;;;13.33;;
16524;SDS011;8375;33.594;-117.718;2023-07-28T08:29:06;22.37;;;13.47;;
16524;SDS011;8375;33.594;-117.718;2023-07-28T08:31:37;26.67;;;12.77;;
16524;SDS011;8375;33.594;-117.718;2023-07-28T08:34:06;23.37;;;13.10;;
16524;SDS011;8375;33.594;-117.718;2023-07-28T08:36:35;22.50;;;13.17;;
16524;SDS011;8375;33.594;-117.718;2023-07-28T08:39:05;29.87;;;13.17;;
16524;SDS011;8375;33.594;-117.718;2023-07-28T08:41:35;22.00;;;13.30;;
16524;SDS011;8375;33.594;-117.718;2023-07-28T08:44:04;21.00;;;12.57;;
16524;SDS011;8375;33.594;-117.718;2023-07-28T08:46:36;19.47;;;12.67;;
16524;SDS011;8375;33.594;-117.718;2023-07-28T08:49:05;27.13;;;14.17;;
16524;SDS011;8375;33.594;-117.718;2023-07-28T08:51:34;28.30;;;13.80;;
16524;SDS011;8375;33.594;-117.718;2023-07-28T08:54:08;22.60;;;13.23;;
16524;SDS011;8375;33.594;-117.718;2023-07-28T08:56:37;22.40;;;13.43;;
16524;SDS011;8375;33.594;-117.718;2023-07-28T08:59:05;24.03;;;13.47;;
16524;SDS011;8375;33.594;-117.718;2023-07-28T09:01:39;24.33;;;13.47;;
16524;SDS011;8375;33.594;-117.718;2023-07-28T09:04:09;24.70;;;12.50;;
16524;SDS011;8375;33.594;-117.718;2023-07-28T09:06:39;28.20;;;15.10;;
16524;SDS011;8375;33.594;-117.718;2023-07-28T09:09:11;23.67;;;13.30;;
16524;SDS011;8375;33.594;-117.718;2023-07-28T09:11:44;27.97;;;13.53;;
16524;SDS011;8375;33.594;-117.718;2023-07-28T09:14:14;25.33;;;12.80;;
16524;SDS011;8375;33.594;-117.718;2023-07-28T09:16:45;25.33;;;12.73;;
16524;SDS011;8375;33.594;-117.718;2023-07-28T09:19:13;23.30;;;13.53;;
16524;SDS011;8375;33.594;-117.718;2023-07-28T09:21:43;33.20;;;14.10;;
16524;SDS011;8375;33.594;-117.718;2023-07-28T09:24:12;24.30;;;13.80;;
16524;SDS011;8375;33.594;-117.718;2023-07-28T09:26:42;22.90;;;12.43;;
16524;SDS011;8375;33.594;-117.718;2023-07-28T09:29:13;27.27;;;13.97;;
16524;SDS011;8375;33.594;-117.718;2023-07-28T09:31:42;28.63;;;14.40;;
16524;SDS011;8375;33.594;-117.718;2023-07-28T09:34:13;29.83;;;15.60;;
16524;SDS011;8375;33.594;-117.718;2023-07-28T09:36:52;29.47;;;14.67;;
16524;SDS011;8375;33.594;-117.718;2023-07-28T09:39:22;25.80;;;14.03;;
16524;SDS011;8375;33.594;-117.718;2023-07-28T09:41:51;25.30;;;15.17;;
16524;SDS011;8375;33.594;-117.718;2023-07-28T09:44:22;29.90;;;15.27;;
16524;SDS011;8375;33.594;-117.718;2023-07-28T09:46:51;24.00;;;14.83;;
16524;SDS011;8375;33.594;-117.718;2023-07-28T09:49:26;29.23;;;15.17;;
16524;SDS011;8375;33.594;-117.718;2023-07-28T09:51:57;24.30;;;14.27;;
16524;SDS011;8375;33.594;-117.718;2023-07-28T09:54:33;27.07;;;15.57;;
16524;SDS011;8375;33.594;-117.718;2023-07-28T09:57:04;28.53;;;15.43;;
16524;SDS011;8375;33.594;-117.718;2023-07-28T09:59:37;34.03;;;15.00;;
16524;SDS011;8375;33.594;-117.718;2023-07-28T10:02:08;27.17;;;14.83;;
16524;SDS011;8375;33.594;-117.718;2023-07-28T10:04:38;31.73;;;15.20;;
16524;SDS011;8375;33.594;-117.718;2023-07-28T10:07:07;31.37;;;17.37;;
16524;SDS011;8375;33.594;-117.718;2023-07-28T10:09:37;31.77;;;15.47;;
16524;SDS011;8375;33.594;-117.718;2023-07-28T10:12:06;31.47;;;15.67;;
16524;SDS011;8375;33.594;-117.718;2023-07-28T10:14:44;29.23;;;14.67;;
16524;SDS011;8375;33.594;-117.718;2023-07-28T10:17:15;31.53;;;16.53;;
16524;SDS011;8375;33.594;-117.718;2023-07-28T10:19:45;35.63;;;15.87;;
16524;SDS011;8375;33.594;-117.718;2023-07-28T10:22:14;26.53;;;15.47;;
16524;SDS011;8375;33.594;-117.718;2023-07-28T10:24:49;24.17;;;14.70;;
16524;SDS011;8375;33.594;-117.718;2023-07-28T10:27:28;30.23;;;15.10;;
16524;SDS011;8375;33.594;-117.718;2023-07-28T10:29:58;29.00;;;15.87;;
16524;SDS011;8375;33.594;-117.718;2023-07-28T10:32:34;27.80;;;14.87;;
16524;SDS011;8375;33.594;-117.718;2023-07-28T10:35:08;28.57;;;14.73;;
16524;SDS011;8375;33.594;-117.718;2023-07-28T10:37:48;33.57;;;15.73;;
16524;SDS011;8375;33.594;-117.718;2023-07-28T10:40:24;24.90;;;15.63;;
16524;SDS011;8375;33.594;-117.718;2023-07-28T10:42:55;29.87;;;15.83;;
16524;SDS011;8375;33.594;-117.718;2023-07-28T10:45:25;31.70;;;15.87;;
16524;SDS011;8375;33.594;-117.718;2023-07-28T10:47:54;32.33;;;15.70;;
16524;SDS011;8375;33.594;-117.718;2023-07-28T10:50:28;35.53;;;17.13;;
16524;SDS011;8375;33.594;-117.718;2023-07-28T10:52:57;33.00;;;17.27;;
16524;SDS011;8375;33.594;-117.718;2023-07-28T10:55:27;31.83;;;16.83;;
16524;SDS011;8375;33.594;-117.718;2023-07-28T10:57:56;33.07;;;17.27;;
16524;SDS011;8375;33.594;-117.718;2023-07-28T11:00:26;33.03;;;17.47;;
16524;SDS011;8375;33.594;-117.718;2023-07-28T11:02:54;27.87;;;17.80;;
16524;SDS011;8375;33.594;-117.718;2023-07-28T11:05:24;34.50;;;18.47;;
16524;SDS011;8375;33.594;-117.718;2023-07-28T11:07:56;33.90;;;18.97;;
16524;SDS011;8375;33.594;-117.718;2023-07-28T11:10:26;28.67;;;19.63;;
16524;SDS011;8375;33.594;-117.718;2023-07-28T11:12:57;34.90;;;18.60;;
16524;SDS011;8375;33.594;-117.718;2023-07-28T11:15:29;31.40;;;18.30;;
16524;SDS011;8375;33.594;-117.718;2023-07-28T11:17:59;30.10;;;18.57;;
16524;SDS011;8375;33.594;-117.718;2023-07-28T11:20:27;24.73;;;15.97;;
16524;SDS011;8375;33.594;-117.718;2023-07-28T11:22:59;27.37;;;16.73;;
16524;SDS011;8375;33.594;-117.718;2023-07-28T11:25:29;28.87;;;17.87;;
16524;SDS011;8375;33.594;-117.718;2023-07-28T11:28:00;27.00;;;18.67;;
16524;SDS011;8375;33.594;-117.718;2023-07-28T11:30:31;24.40;;;17.53;;
16524;SDS011;8375;33.594;-117.718;2023-07-28T11:33:03;25.90;;;17.33;;
16524;SDS011;8375;33.594;-117.718;2023-07-28T11:35:35;29.03;;;19.57;;
16524;SDS011;8375;33.594;-117.718;2023-07-28T11:38:06;40.20;;;20.33;;
16524;SDS011;8375;33.594;-117.718;2023-07-28T11:40:36;27.80;;;18.80;;
16524;SDS011;8375;33.594;-117.718;2023-07-28T11:43:05;26.10;;;17.90;;
16524;SDS011;8375;33.594;-117.718;2023-07-28T11:45:34;25.90;;;17.30;;
16524;SDS011;8375;33.594;-117.718;2023-07-28T11:48:03;25.60;;;17.63;;
16524;SDS011;8375;33.594;-117.718;2023-07-28T11:50:34;27.73;;;18.27;;
16524;SDS011;8375;33.594;-117.718;2023-07-28T11:53:06;27.47;;;18.70;;
16524;SDS011;8375;33.594;-117.718;2023-07-28T11:55:37;29.17;;;18.57;;
16524;SDS011;8375;33.594;-117.718;2023-07-28T11:58:06;26.73;;;16.77;;
16524;SDS011;8375;33.594;-117.718;2023-07-28T12:00:37;22.80;;;17.03;;
16524;SDS011;8375;33.594;-117.718;2023-07-28T12:03:08;23.53;;;16.27;;
16524;SDS011;8375;33.594;-117.718;2023-07-28T12:05:38;24.60;;;16.20;;
16524;SDS011;8375;33.594;-117.718;2023-07-28T12:08:09;28.67;;;17.17;;
16524;SDS011;8375;33.594;-117.718;2023-07-28T12:10:50;35.00;;;17.37;;
16524;SDS011;8375;33.594;-117.718;2023-07-28T12:13:22;23.17;;;16.87;;
16524;SDS011;8375;33.594;-117.718;2023-07-28T12:15:52;29.93;;;18.47;;
16524;SDS011;8375;33.594;-117.718;2023-07-28T12:18:21;23.47;;;17.97;;
16524;SDS011;8375;33.594;-117.718;2023-07-28T12:20:51;49.20;;;20.20;;
16524;SDS011;8375;33.594;-117.718;2023-07-28T12:23:23;29.30;;;19.83;;
16524;SDS011;8375;33.594;-117.718;2023-07-28T12:25:51;29.00;;;19.90;;
16524;SDS011;8375;33.594;-117.718;2023-07-28T12:28:21;30.03;;;19.40;;
16524;SDS011;8375;33.594;-117.718;2023-07-28T12:30:50;26.77;;;17.47;;
16524;SDS011;8375;33.594;-117.718;2023-07-28T12:33:21;32.57;;;19.40;;
16524;SDS011;8375;33.594;-117.718;2023-07-28T12:35:51;27.90;;;18.67;;
16524;SDS011;8375;33.594;-117.718;2023-07-28T12:38:20;25.93;;;18.47;;
16524;SDS011;8375;33.594;-117.718;2023-07-28T12:40:50;31.53;;;20.00;;
16524;SDS011;8375;33.594;-117.718;2023-07-28T12:43:20;31.97;;;21.37;;
16524;SDS011;8375;33.594;-117.718;2023-07-28T12:45:50;35.93;;;21.50;;
16524;SDS011;8375;33.594;-117.718;2023-07-28T12:48:18;38.40;;;22.70;;
16524;SDS011;8375;33.594;-117.718;2023-07-28T12:50:47;34.67;;;21.30;;
16524;SDS011;8375;33.594;-117.718;2023-07-28T12:53:16;38.50;;;22.17;;
16524;SDS011;8375;33.594;-117.718;2023-07-28T12:55:45;38.37;;;22.23;;
16524;SDS011;8375;33.594;-117.718;2023-07-28T12:58:15;37.50;;;21.90;;
16524;SDS011;8375;33.594;-117.718;2023-07-28T13:00:44;48.00;;;23.80;;
16524;SDS011;8375;33.594;-117.718;2023-07-28T13:03:13;43.23;;;22.93;;
16524;SDS011;8375;33.594;-117.718;2023-07-28T13:05:41;44.30;;;22.90;;
16524;SDS011;8375;33.594;-117.718;2023-07-28T13:08:12;41.80;;;22.50;;
16524;SDS011;8375;33.594;-117.718;2023-07-28T13:10:41;34.17;;;22.33;;
16524;SDS011;8375;33.594;-117.718;2023-07-28T13:13:10;33.67;;;21.73;;
16524;SDS011;8375;33.594;-117.718;2023-07-28T13:15:40;37.70;;;22.17;;
16524;SDS011;8375;33.594;-117.718;2023-07-28T13:18:09;36.77;;;21.43;;
16524;SDS011;8375;33.594;-117.718;2023-07-28T13:20:37;32.37;;;20.60;;
16524;SDS011;8375;33.594;-117.718;2023-07-28T13:23:06;29.10;;;20.77;;
16524;SDS011;8375;33.594;-117.718;2023-07-28T13:25:35;33.87;;;21.50;;
16524;SDS011;8375;33.594;-117.718;2023-07-28T13:28:04;31.03;;;19.23;;
16524;SDS011;8375;33.594;-117.718;2023-07-28T13:30:33;35.63;;;20.67;;
16524;SDS011;8375;33.594;-117.718;2023-07-28T13:33:03;28.20;;;19.60;;
16524;SDS011;8375;33.594;-117.718;2023-07-28T13:35:32;28.53;;;18.13;;
16524;SDS011;8375;33.594;-117.718;2023-07-28T13:38:01;29.17;;;18.67;;
16524;SDS011;8375;33.594;-117.718;2023-07-28T13:40:30;26.03;;;18.83;;
16524;SDS011;8375;33.594;-117.718;2023-07-28T13:42:58;26.40;;;17.67;;
16524;SDS011;8375;33.594;-117.718;2023-07-28T13:45:27;22.80;;;16.20;;
16524;SDS011;8375;33.594;-117.718;2023-07-28T13:47:56;27.33;;;17.60;;
16524;SDS011;8375;33.594;-117.718;2023-07-28T13:50:26;22.03;;;15.93;;
16524;SDS011;8375;33.594;-117.718;2023-07-28T13:52:55;22.83;;;15.77;;
16524;SDS011;8375;33.594;-117.718;2023-07-28T13:55:24;19.70;;;15.93;;
16524;SDS011;8375;33.594;-117.718;2023-07-28T13:57:52;22.13;;;15.13;;
16524;SDS011;8375;33.594;-117.718;2023-07-28T14:00:21;19.67;;;14.73;;
16524;SDS011;8375;33.594;-117.718;2023-07-28T14:02:50;21.60;;;15.50;;
16524;SDS011;8375;33.594;-117.718;2023-07-28T14:05:18;22.47;;;15.20;;
16524;SDS011;8375;33.594;-117.718;2023-07-28T14:07:50;24.60;;;16.13;;
16524;SDS011;8375;33.594;-117.718;2023-07-28T14:10:18;21.37;;;16.90;;
16524;SDS011;8375;33.594;-117.718;2023-07-28T14:12:47;24.67;;;16.10;;
16524;SDS011;8375;33.594;-117.718;2023-07-28T14:15:16;21.83;;;15.47;;